sensor_id;sensor_type;location;lat;lon;timestamp;P1;durP1;ratioP1;P2;durP2;ratioP2
55732;SDS011;41637;52.364;9.910;2023-03-29T00:02:22;3.80;;;1.70;;
55732;SDS011;41637;52.364;9.910;2023-03-29T00:04:56;4.60;;;1.40;;
55732;SDS011;41637;52.364;9.910;2023-03-29T00:07:27;4.30;;;1.30;;
55732;SDS011;41637;52.364;9.910;2023-03-29T00:09:55;5.30;;;1.60;;
55732;SDS011;41637;52.364;9.910;2023-03-29T00:12:21;5.00;;;1.50;;
55732;SDS011;41637;52.364;9.910;2023-03-29T00:14:48;3.00;;;1.30;;
55732;SDS011;41637;52.364;9.910;2023-03-29T00:17:15;4.70;;;1.60;;
55732;SDS011;41637;52.364;9.910;2023-03-29T00:19:42;3.80;;;1.40;;
55732;SDS011;41637;52.364;9.910;2023-03-29T00:22:10;4.70;;;1.50;;
55732;SDS011;41637;52.364;9.910;2023-03-29T00:24:36;5.10;;;1.40;;
55732;SDS011;41637;52.364;9.910;2023-03-29T00:27:03;4.20;;;1.30;;
55732;SDS011;41637;52.364;9.910;2023-03-29T00:29:30;3.00;;;1.10;;
55732;SDS011;41637;52.364;9.910;2023-03-29T00:31:57;5.20;;;1.70;;
55732;SDS011;41637;52.364;9.910;2023-03-29T00:34:25;5.40;;;1.80;;
55732;SDS011;41637;52.364;9.910;2023-03-29T00:36:56;5.00;;;1.80;;
55732;SDS011;41637;52.364;9.910;2023-03-29T00:39:24;5.70;;;1.60;;
55732;SDS011;41637;52.364;9.910;2023-03-29T00:41:53;4.00;;;1.40;;
55732;SDS011;41637;52.364;9.910;2023-03-29T00:47:40;5.20;;;1.60;;
55732;SDS011;41637;52.364;9.910;2023-03-29T00:52:43;3.40;;;1.30;;
55732;SDS011;41637;52.364;9.910;2023-03-29T00:55:15;9.00;;;1.80;;
55732;SDS011;41637;52.364;9.910;2023-03-29T00:57:44;4.80;;;1.80;;
55732;SDS011;41637;52.364;9.910;2023-03-29T01:00:13;4.60;;;1.70;;
55732;SDS011;41637;52.364;9.910;2023-03-29T01:02:46;4.90;;;1.60;;
55732;SDS011;41637;52.364;9.910;2023-03-29T01:05:30;7.20;;;1.90;;
55732;SDS011;41637;52.364;9.910;2023-03-29T01:08:00;5.90;;;1.70;;
55732;SDS011;41637;52.364;9.910;2023-03-29T01:10:54;6.30;;;1.80;;
55732;SDS011;41637;52.364;9.910;2023-03-29T01:13:35;5.90;;;1.60;;
55732;SDS011;41637;52.364;9.910;2023-03-29T01:16:07;4.60;;;1.60;;
55732;SDS011;41637;52.364;9.910;2023-03-29T01:18:36;5.00;;;1.80;;
55732;SDS011;41637;52.364;9.910;2023-03-29T01:26:26;6.40;;;2.10;;
55732;SDS011;41637;52.364;9.910;2023-03-29T01:29:08;5.60;;;1.80;;
55732;SDS011;41637;52.364;9.910;2023-03-29T01:31:41;5.10;;;1.70;;
55732;SDS011;41637;52.364;9.910;2023-03-29T01:34:17;6.40;;;1.80;;
55732;SDS011;41637;52.364;9.910;2023-03-29T01:36:55;5.80;;;1.50;;
55732;SDS011;41637;52.364;9.910;2023-03-29T01:39:29;4.50;;;1.60;;
55732;SDS011;41637;52.364;9.910;2023-03-29T01:42:08;6.40;;;1.60;;
55732;SDS011;41637;52.364;9.910;2023-03-29T01:47:26;6.30;;;1.90;;
55732;SDS011;41637;52.364;9.910;2023-03-29T01:50:06;6.70;;;1.90;;
55732;SDS011;41637;52.364;9.910;2023-03-29T01:52:45;5.20;;;2.00;;
55732;SDS011;41637;52.364;9.910;2023-03-29T01:55:31;6.60;;;2.00;;
55732;SDS011;41637;52.364;9.910;2023-03-29T01:58:01;5.10;;;2.00;;
55732;SDS011;41637;52.364;9.910;2023-03-29T02:00:30;4.60;;;2.20;;
55732;SDS011;41637;52.364;9.910;2023-03-29T02:03:00;4.30;;;1.80;;
55732;SDS011;41637;52.364;9.910;2023-03-29T02:05:32;6.20;;;2.60;;
55732;SDS011;41637;52.364;9.910;2023-03-29T02:08:01;6.00;;;2.20;;
55732;SDS011;41637;52.364;9.910;2023-03-29T02:10:31;5.60;;;2.10;;
55732;SDS011;41637;52.364;9.910;2023-03-29T02:12:59;5.20;;;2.40;;
55732;SDS011;41637;52.364;9.910;2023-03-29T02:15:26;6.00;;;2.10;;
55732;SDS011;41637;52.364;9.910;2023-03-29T02:17:53;6.20;;;2.30;;
55732;SDS011;41637;52.364;9.910;2023-03-29T02:20:27;5.40;;;2.30;;
55732;SDS011;41637;52.364;9.910;2023-03-29T02:25:41;5.30;;;2.30;;
55732;SDS011;41637;52.364;9.910;2023-03-29T02:28:10;7.60;;;2.40;;
55732;SDS011;41637;52.364;9.910;2023-03-29T02:36:26;6.60;;;2.30;;
55732;SDS011;41637;52.364;9.910;2023-03-29T02:39:00;4.30;;;2.10;;
55732;SDS011;41637;52.364;9.910;2023-03-29T02:41:30;6.60;;;2.60;;
55732;SDS011;41637;52.364;9.910;2023-03-29T02:43:57;5.70;;;2.40;;
55732;SDS011;41637;52.364;9.910;2023-03-29T02:46:26;4.20;;;2.40;;
55732;SDS011;41637;52.364;9.910;2023-03-29T02:48:53;5.80;;;2.30;;
55732;SDS011;41637;52.364;9.910;2023-03-29T02:51:23;5.90;;;2.50;;
55732;SDS011;41637;52.364;9.910;2023-03-29T02:54:08;6.40;;;2.30;;
55732;SDS011;41637;52.364;9.910;2023-03-29T02:56:44;6.00;;;2.50;;
55732;SDS011;41637;52.364;9.910;2023-03-29T02:59:13;6.40;;;2.50;;
55732;SDS011;41637;52.364;9.910;2023-03-29T03:01:42;5.60;;;2.50;;
55732;SDS011;41637;52.364;9.910;2023-03-29T03:04:10;6.10;;;2.50;;
55732;SDS011;41637;52.364;9.910;2023-03-29T03:06:38;5.60;;;2.40;;
55732;SDS011;41637;52.364;9.910;2023-03-29T03:09:05;6.40;;;2.70;;
55732;SDS011;41637;52.364;9.910;2023-03-29T03:11:32;7.10;;;3.10;;
55732;SDS011;41637;52.364;9.910;2023-03-29T03:13:59;6.40;;;3.10;;
55732;SDS011;41637;52.364;9.910;2023-03-29T03:16:26;5.60;;;2.70;;
55732;SDS011;41637;52.364;9.910;2023-03-29T03:18:53;4.70;;;2.80;;
55732;SDS011;41637;52.364;9.910;2023-03-29T03:21:21;5.70;;;2.90;;
55732;SDS011;41637;52.364;9.910;2023-03-29T03:23:48;6.70;;;3.20;;
55732;SDS011;41637;52.364;9.910;2023-03-29T03:26:15;7.60;;;3.20;;
55732;SDS011;41637;52.364;9.910;2023-03-29T03:28:43;5.60;;;3.10;;
55732;SDS011;41637;52.364;9.910;2023-03-29T03:31:11;7.20;;;3.40;;
55732;SDS011;41637;52.364;9.910;2023-03-29T03:33:40;5.90;;;3.30;;
55732;SDS011;41637;52.364;9.910;2023-03-29T03:36:08;4.40;;;2.90;;
55732;SDS011;41637;52.364;9.910;2023-03-29T03:38:36;7.20;;;3.60;;
55732;SDS011;41637;52.364;9.910;2023-03-29T03:41:04;5.90;;;3.30;;
55732;SDS011;41637;52.364;9.910;2023-03-29T03:43:34;6.80;;;3.50;;
55732;SDS011;41637;52.364;9.910;2023-03-29T03:46:01;5.30;;;3.40;;
55732;SDS011;41637;52.364;9.910;2023-03-29T03:48:28;5.00;;;3.40;;
55732;SDS011;41637;52.364;9.910;2023-03-29T03:50:56;6.10;;;3.90;;
55732;SDS011;41637;52.364;9.910;2023-03-29T03:53:25;5.90;;;3.70;;
55732;SDS011;41637;52.364;9.910;2023-03-29T03:55:53;7.60;;;3.80;;
55732;SDS011;41637;52.364;9.910;2023-03-29T03:58:23;6.50;;;3.90;;
55732;SDS011;41637;52.364;9.910;2023-03-29T04:00:50;6.00;;;4.00;;
55732;SDS011;41637;52.364;9.910;2023-03-29T04:03:16;7.90;;;4.10;;
55732;SDS011;41637;52.364;9.910;2023-03-29T04:05:44;5.80;;;4.10;;
55732;SDS011;41637;52.364;9.910;2023-03-29T04:08:11;6.90;;;4.00;;
55732;SDS011;41637;52.364;9.910;2023-03-29T04:10:39;7.50;;;3.80;;
55732;SDS011;41637;52.364;9.910;2023-03-29T04:13:06;6.20;;;4.10;;
55732;SDS011;41637;52.364;9.910;2023-03-29T04:15:33;7.50;;;3.90;;
55732;SDS011;41637;52.364;9.910;2023-03-29T04:18:04;6.60;;;4.10;;
55732;SDS011;41637;52.364;9.910;2023-03-29T04:20:33;6.50;;;4.10;;
55732;SDS011;41637;52.364;9.910;2023-03-29T04:23:00;6.40;;;4.70;;
55732;SDS011;41637;52.364;9.910;2023-03-29T04:25:27;6.60;;;4.20;;
55732;SDS011;41637;52.364;9.910;2023-03-29T04:27:54;6.60;;;4.50;;
55732;SDS011;41637;52.364;9.910;2023-03-29T04:30:21;6.80;;;4.00;;
55732;SDS011;41637;52.364;9.910;2023-03-29T04:32:48;7.40;;;4.60;;
55732;SDS011;41637;52.364;9.910;2023-03-29T04:35:15;7.60;;;4.50;;
55732;SDS011;41637;52.364;9.910;2023-03-29T04:37:43;7.70;;;4.20;;
55732;SDS011;41637;52.364;9.910;2023-03-29T04:40:10;6.00;;;4.30;;
55732;SDS011;41637;52.364;9.910;2023-03-29T04:42:40;6.10;;;4.20;;
55732;SDS011;41637;52.364;9.910;2023-03-29T04:45:11;6.90;;;4.20;;
55732;SDS011;41637;52.364;9.910;2023-03-29T04:47:43;8.80;;;4.50;;
55732;SDS011;41637;52.364;9.910;2023-03-29T04:50:11;5.70;;;4.30;;
55732;SDS011;41637;52.364;9.910;2023-03-29T04:52:39;8.50;;;4.20;;
55732;SDS011;41637;52.364;9.910;2023-03-29T04:55:06;8.40;;;4.20;;
55732;SDS011;41637;52.364;9.910;2023-03-29T04:57:34;6.20;;;4.50;;
55732;SDS011;41637;52.364;9.910;2023-03-29T05:00:01;8.00;;;4.60;;
55732;SDS011;41637;52.364;9.910;2023-03-29T05:02:33;8.60;;;4.10;;
55732;SDS011;41637;52.364;9.910;2023-03-29T05:05:00;7.80;;;4.00;;
55732;SDS011;41637;52.364;9.910;2023-03-29T05:07:26;7.50;;;4.20;;
55732;SDS011;41637;52.364;9.910;2023-03-29T05:09:53;7.90;;;4.20;;
55732;SDS011;41637;52.364;9.910;2023-03-29T05:12:20;7.10;;;4.30;;
55732;SDS011;41637;52.364;9.910;2023-03-29T05:14:46;6.70;;;4.30;;
55732;SDS011;41637;52.364;9.910;2023-03-29T05:17:13;7.70;;;4.20;;
55732;SDS011;41637;52.364;9.910;2023-03-29T05:19:39;9.30;;;4.30;;
55732;SDS011;41637;52.364;9.910;2023-03-29T05:22:06;7.00;;;4.30;;
55732;SDS011;41637;52.364;9.910;2023-03-29T05:24:34;7.10;;;4.80;;
55732;SDS011;41637;52.364;9.910;2023-03-29T05:27:01;5.40;;;3.40;;
55732;SDS011;41637;52.364;9.910;2023-03-29T05:29:27;8.70;;;4.30;;
55732;SDS011;41637;52.364;9.910;2023-03-29T05:31:54;6.60;;;4.70;;
55732;SDS011;41637;52.364;9.910;2023-03-29T05:34:21;6.90;;;4.70;;
55732;SDS011;41637;52.364;9.910;2023-03-29T05:36:47;8.70;;;4.50;;
55732;SDS011;41637;52.364;9.910;2023-03-29T05:39:14;6.60;;;4.30;;
55732;SDS011;41637;52.364;9.910;2023-03-29T05:41:41;7.40;;;4.50;;
55732;SDS011;41637;52.364;9.910;2023-03-29T05:44:07;7.80;;;4.70;;
55732;SDS011;41637;52.364;9.910;2023-03-29T05:46:37;6.70;;;4.60;;
55732;SDS011;41637;52.364;9.910;2023-03-29T05:49:03;7.90;;;4.50;;
55732;SDS011;41637;52.364;9.910;2023-03-29T05:51:31;5.90;;;4.40;;
55732;SDS011;41637;52.364;9.910;2023-03-29T05:53:58;5.80;;;4.70;;
55732;SDS011;41637;52.364;9.910;2023-03-29T05:56:25;6.80;;;4.80;;
55732;SDS011;41637;52.364;9.910;2023-03-29T05:58:52;6.20;;;4.80;;
55732;SDS011;41637;52.364;9.910;2023-03-29T06:01:22;8.70;;;4.90;;
55732;SDS011;41637;52.364;9.910;2023-03-29T06:03:50;7.00;;;5.00;;
55732;SDS011;41637;52.364;9.910;2023-03-29T06:06:17;7.40;;;5.40;;
55732;SDS011;41637;52.364;9.910;2023-03-29T06:08:44;6.80;;;5.00;;
55732;SDS011;41637;52.364;9.910;2023-03-29T06:11:11;8.10;;;5.40;;
55732;SDS011;41637;52.364;9.910;2023-03-29T06:13:38;8.00;;;5.00;;
55732;SDS011;41637;52.364;9.910;2023-03-29T06:16:07;8.80;;;5.70;;
55732;SDS011;41637;52.364;9.910;2023-03-29T06:18:35;7.00;;;4.90;;
55732;SDS011;41637;52.364;9.910;2023-03-29T06:21:05;7.30;;;5.00;;
55732;SDS011;41637;52.364;9.910;2023-03-29T06:23:34;9.60;;;5.50;;
55732;SDS011;41637;52.364;9.910;2023-03-29T06:26:02;8.40;;;5.40;;
55732;SDS011;41637;52.364;9.910;2023-03-29T06:28:29;8.30;;;6.00;;
55732;SDS011;41637;52.364;9.910;2023-03-29T06:30:56;8.60;;;5.50;;
55732;SDS011;41637;52.364;9.910;2023-03-29T06:33:28;7.60;;;5.40;;
55732;SDS011;41637;52.364;9.910;2023-03-29T06:35:56;7.20;;;4.90;;
55732;SDS011;41637;52.364;9.910;2023-03-29T06:38:23;8.70;;;4.90;;
55732;SDS011;41637;52.364;9.910;2023-03-29T06:40:58;8.40;;;4.80;;
55732;SDS011;41637;52.364;9.910;2023-03-29T06:43:26;7.50;;;5.00;;
55732;SDS011;41637;52.364;9.910;2023-03-29T06:45:53;8.50;;;5.50;;
55732;SDS011;41637;52.364;9.910;2023-03-29T06:48:20;8.90;;;4.90;;
55732;SDS011;41637;52.364;9.910;2023-03-29T06:50:47;7.90;;;5.10;;
55732;SDS011;41637;52.364;9.910;2023-03-29T06:53:14;6.90;;;4.70;;
55732;SDS011;41637;52.364;9.910;2023-03-29T06:55:42;6.90;;;5.20;;
55732;SDS011;41637;52.364;9.910;2023-03-29T06:58:08;6.30;;;4.60;;
55732;SDS011;41637;52.364;9.910;2023-03-29T07:00:36;6.50;;;4.60;;
55732;SDS011;41637;52.364;9.910;2023-03-29T07:03:05;9.00;;;4.80;;
55732;SDS011;41637;52.364;9.910;2023-03-29T07:05:35;6.40;;;4.30;;
55732;SDS011;41637;52.364;9.910;2023-03-29T07:08:05;7.00;;;4.80;;
55732;SDS011;41637;52.364;9.910;2023-03-29T07:10:40;7.50;;;4.90;;
55732;SDS011;41637;52.364;9.910;2023-03-29T07:13:12;6.10;;;4.30;;
55732;SDS011;41637;52.364;9.910;2023-03-29T07:15:40;6.50;;;4.20;;
55732;SDS011;41637;52.364;9.910;2023-03-29T07:18:08;6.30;;;4.10;;
55732;SDS011;41637;52.364;9.910;2023-03-29T07:20:36;5.90;;;3.70;;
55732;SDS011;41637;52.364;9.910;2023-03-29T07:23:04;6.80;;;4.40;;
55732;SDS011;41637;52.364;9.910;2023-03-29T07:25:31;7.30;;;4.10;;
55732;SDS011;41637;52.364;9.910;2023-03-29T07:27:59;5.80;;;4.10;;
55732;SDS011;41637;52.364;9.910;2023-03-29T07:30:27;6.40;;;4.20;;
55732;SDS011;41637;52.364;9.910;2023-03-29T07:32:57;6.10;;;4.30;;
55732;SDS011;41637;52.364;9.910;2023-03-29T07:35:25;7.00;;;4.20;;
55732;SDS011;41637;52.364;9.910;2023-03-29T07:37:53;6.60;;;4.00;;
55732;SDS011;41637;52.364;9.910;2023-03-29T07:40:21;6.60;;;3.90;;
55732;SDS011;41637;52.364;9.910;2023-03-29T07:42:52;5.50;;;4.20;;
55732;SDS011;41637;52.364;9.910;2023-03-29T07:45:23;5.90;;;3.80;;
55732;SDS011;41637;52.364;9.910;2023-03-29T07:47:56;5.80;;;4.20;;
55732;SDS011;41637;52.364;9.910;2023-03-29T07:50:27;6.00;;;3.90;;
55732;SDS011;41637;52.364;9.910;2023-03-29T07:52:57;6.10;;;3.80;;
55732;SDS011;41637;52.364;9.910;2023-03-29T07:55:26;6.80;;;4.00;;
55732;SDS011;41637;52.364;9.910;2023-03-29T07:57:52;7.60;;;3.80;;
55732;SDS011;41637;52.364;9.910;2023-03-29T08:00:19;6.60;;;3.80;;
55732;SDS011;41637;52.364;9.910;2023-03-29T08:02:48;9.00;;;4.30;;
55732;SDS011;41637;52.364;9.910;2023-03-29T08:05:18;6.50;;;4.10;;
55732;SDS011;41637;52.364;9.910;2023-03-29T08:08:06;6.00;;;3.90;;
55732;SDS011;41637;52.364;9.910;2023-03-29T08:10:35;6.70;;;3.70;;
55732;SDS011;41637;52.364;9.910;2023-03-29T08:13:05;7.40;;;4.20;;
55732;SDS011;41637;52.364;9.910;2023-03-29T08:15:34;6.70;;;4.00;;
55732;SDS011;41637;52.364;9.910;2023-03-29T08:18:03;6.40;;;3.80;;
55732;SDS011;41637;52.364;9.910;2023-03-29T08:20:30;7.40;;;3.80;;
55732;SDS011;41637;52.364;9.910;2023-03-29T08:22:58;7.30;;;4.30;;
55732;SDS011;41637;52.364;9.910;2023-03-29T08:25:24;6.30;;;4.10;;
55732;SDS011;41637;52.364;9.910;2023-03-29T08:27:51;6.80;;;3.80;;
55732;SDS011;41637;52.364;9.910;2023-03-29T08:30:18;6.10;;;4.00;;
55732;SDS011;41637;52.364;9.910;2023-03-29T08:32:45;5.30;;;3.80;;
55732;SDS011;41637;52.364;9.910;2023-03-29T08:35:16;6.70;;;3.80;;
55732;SDS011;41637;52.364;9.910;2023-03-29T08:37:43;7.50;;;4.40;;
55732;SDS011;41637;52.364;9.910;2023-03-29T08:40:20;5.80;;;3.50;;
55732;SDS011;41637;52.364;9.910;2023-03-29T08:50:35;6.90;;;4.30;;
55732;SDS011;41637;52.364;9.910;2023-03-29T08:53:05;7.30;;;3.80;;
55732;SDS011;41637;52.364;9.910;2023-03-29T08:55:56;7.30;;;4.40;;
55732;SDS011;41637;52.364;9.910;2023-03-29T08:58:26;5.50;;;4.20;;
55732;SDS011;41637;52.364;9.910;2023-03-29T09:00:57;5.10;;;3.80;;
55732;SDS011;41637;52.364;9.910;2023-03-29T09:03:30;8.60;;;4.20;;
55732;SDS011;41637;52.364;9.910;2023-03-29T09:06:13;6.40;;;3.80;;
55732;SDS011;41637;52.364;9.910;2023-03-29T09:08:45;6.50;;;3.90;;
55732;SDS011;41637;52.364;9.910;2023-03-29T09:16:44;5.90;;;3.90;;
55732;SDS011;41637;52.364;9.910;2023-03-29T09:22:29;8.00;;;4.30;;
55732;SDS011;41637;52.364;9.910;2023-03-29T09:30:53;6.10;;;3.90;;
55732;SDS011;41637;52.364;9.910;2023-03-29T09:33:27;6.40;;;3.80;;
55732;SDS011;41637;52.364;9.910;2023-03-29T09:36:15;6.00;;;3.90;;
55732;SDS011;41637;52.364;9.910;2023-03-29T09:38:48;5.60;;;3.80;;
55732;SDS011;41637;52.364;9.910;2023-03-29T09:41:26;7.10;;;4.20;;
55732;SDS011;41637;52.364;9.910;2023-03-29T09:44:00;6.90;;;4.20;;
55732;SDS011;41637;52.364;9.910;2023-03-29T09:46:47;5.50;;;4.00;;
55732;SDS011;41637;52.364;9.910;2023-03-29T09:49:22;6.60;;;4.20;;
55732;SDS011;41637;52.364;9.910;2023-03-29T09:51:54;6.60;;;3.70;;
55732;SDS011;41637;52.364;9.910;2023-03-29T09:54:24;8.10;;;4.10;;
55732;SDS011;41637;52.364;9.910;2023-03-29T09:56:51;6.30;;;4.10;;
55732;SDS011;41637;52.364;9.910;2023-03-29T09:59:18;6.00;;;4.00;;
55732;SDS011;41637;52.364;9.910;2023-03-29T10:01:46;6.30;;;3.80;;
55732;SDS011;41637;52.364;9.910;2023-03-29T10:04:13;5.90;;;3.50;;
55732;SDS011;41637;52.364;9.910;2023-03-29T10:06:43;6.40;;;3.90;;
55732;SDS011;41637;52.364;9.910;2023-03-29T10:09:21;6.50;;;4.30;;
55732;SDS011;41637;52.364;9.910;2023-03-29T10:11:53;6.10;;;4.10;;
55732;SDS011;41637;52.364;9.910;2023-03-29T10:14:42;6.10;;;4.00;;
55732;SDS011;41637;52.364;9.910;2023-03-29T10:17:15;7.10;;;4.00;;
55732;SDS011;41637;52.364;9.910;2023-03-29T10:19:50;7.00;;;4.00;;
55732;SDS011;41637;52.364;9.910;2023-03-29T10:22:21;6.40;;;3.60;;
55732;SDS011;41637;52.364;9.910;2023-03-29T10:24:50;6.90;;;3.90;;
55732;SDS011;41637;52.364;9.910;2023-03-29T10:27:22;6.10;;;4.10;;
55732;SDS011;41637;52.364;9.910;2023-03-29T10:29:51;5.10;;;3.60;;
55732;SDS011;41637;52.364;9.910;2023-03-29T10:34:53;5.80;;;3.60;;
55732;SDS011;41637;52.364;9.910;2023-03-29T10:37:24;5.40;;;3.30;;
55732;SDS011;41637;52.364;9.910;2023-03-29T10:39:53;5.40;;;3.00;;
55732;SDS011;41637;52.364;9.910;2023-03-29T10:42:21;5.30;;;3.40;;
55732;SDS011;41637;52.364;9.910;2023-03-29T10:44:57;5.60;;;3.50;;
55732;SDS011;41637;52.364;9.910;2023-03-29T10:47:25;4.70;;;3.50;;
55732;SDS011;41637;52.364;9.910;2023-03-29T10:49:59;6.10;;;3.70;;
55732;SDS011;41637;52.364;9.910;2023-03-29T10:52:28;5.20;;;3.50;;
55732;SDS011;41637;52.364;9.910;2023-03-29T10:54:54;5.20;;;3.10;;
55732;SDS011;41637;52.364;9.910;2023-03-29T10:57:29;5.80;;;3.30;;
55732;SDS011;41637;52.364;9.910;2023-03-29T11:00:12;6.50;;;3.50;;
55732;SDS011;41637;52.364;9.910;2023-03-29T11:06:15;7.20;;;3.80;;
55732;SDS011;41637;52.364;9.910;2023-03-29T11:15:02;7.60;;;4.50;;
55732;SDS011;41637;52.364;9.910;2023-03-29T11:25:30;7.00;;;4.00;;
55732;SDS011;41637;52.364;9.910;2023-03-29T11:30:52;9.30;;;4.90;;
55732;SDS011;41637;52.364;9.910;2023-03-29T11:33:39;8.20;;;4.30;;
55732;SDS011;41637;52.364;9.910;2023-03-29T11:38:41;6.20;;;4.20;;
55732;SDS011;41637;52.364;9.910;2023-03-29T11:41:33;8.50;;;4.00;;
55732;SDS011;41637;52.364;9.910;2023-03-29T11:44:05;8.30;;;5.00;;
55732;SDS011;41637;52.364;9.910;2023-03-29T11:53:00;8.00;;;4.60;;
55732;SDS011;41637;52.364;9.910;2023-03-29T11:55:34;8.90;;;5.00;;
55732;SDS011;41637;52.364;9.910;2023-03-29T11:58:05;9.10;;;4.70;;
55732;SDS011;41637;52.364;9.910;2023-03-29T12:00:48;10.00;;;5.20;;
55732;SDS011;41637;52.364;9.910;2023-03-29T12:03:35;6.60;;;4.50;;
55732;SDS011;41637;52.364;9.910;2023-03-29T12:06:09;7.00;;;4.70;;
55732;SDS011;41637;52.364;9.910;2023-03-29T12:08:45;7.30;;;4.60;;
55732;SDS011;41637;52.364;9.910;2023-03-29T12:11:32;6.80;;;4.70;;
55732;SDS011;41637;52.364;9.910;2023-03-29T12:14:04;7.40;;;4.60;;
55732;SDS011;41637;52.364;9.910;2023-03-29T12:22:07;7.70;;;4.60;;
55732;SDS011;41637;52.364;9.910;2023-03-29T12:24:34;5.50;;;3.90;;
55732;SDS011;41637;52.364;9.910;2023-03-29T12:32:44;5.90;;;3.70;;
55732;SDS011;41637;52.364;9.910;2023-03-29T12:40:54;7.40;;;3.70;;
55732;SDS011;41637;52.364;9.910;2023-03-29T12:46:16;5.20;;;3.60;;
55732;SDS011;41637;52.364;9.910;2023-03-29T12:51:58;4.80;;;3.20;;
55732;SDS011;41637;52.364;9.910;2023-03-29T12:54:31;6.40;;;3.60;;
55732;SDS011;41637;52.364;9.910;2023-03-29T12:56:59;5.10;;;3.30;;
55732;SDS011;41637;52.364;9.910;2023-03-29T12:59:52;5.40;;;3.30;;
55732;SDS011;41637;52.364;9.910;2023-03-29T13:02:31;6.40;;;4.10;;
55732;SDS011;41637;52.364;9.910;2023-03-29T13:05:00;6.10;;;3.80;;
55732;SDS011;41637;52.364;9.910;2023-03-29T13:07:31;6.90;;;3.70;;
55732;SDS011;41637;52.364;9.910;2023-03-29T13:10:27;5.60;;;3.80;;
55732;SDS011;41637;52.364;9.910;2023-03-29T13:13:06;6.40;;;3.60;;
55732;SDS011;41637;52.364;9.910;2023-03-29T13:15:37;5.00;;;3.50;;
55732;SDS011;41637;52.364;9.910;2023-03-29T13:20:57;8.30;;;3.80;;
55732;SDS011;41637;52.364;9.910;2023-03-29T13:23:40;5.60;;;3.90;;
55732;SDS011;41637;52.364;9.910;2023-03-29T13:29:32;4.80;;;3.10;;
55732;SDS011;41637;52.364;9.910;2023-03-29T13:46:12;6.50;;;4.90;;
55732;SDS011;41637;52.364;9.910;2023-03-29T13:53:54;6.70;;;4.90;;
55732;SDS011;41637;52.364;9.910;2023-03-29T13:56:29;6.30;;;4.60;;
55732;SDS011;41637;52.364;9.910;2023-03-29T14:01:40;7.10;;;5.20;;
55732;SDS011;41637;52.364;9.910;2023-03-29T14:04:18;5.90;;;4.40;;
55732;SDS011;41637;52.364;9.910;2023-03-29T14:06:50;7.00;;;4.70;;
55732;SDS011;41637;52.364;9.910;2023-03-29T14:09:21;6.30;;;4.30;;
55732;SDS011;41637;52.364;9.910;2023-03-29T14:11:53;7.00;;;4.60;;
55732;SDS011;41637;52.364;9.910;2023-03-29T14:14:21;6.10;;;4.00;;
55732;SDS011;41637;52.364;9.910;2023-03-29T14:16:50;5.80;;;4.10;;
55732;SDS011;41637;52.364;9.910;2023-03-29T14:19:30;7.70;;;4.50;;
55732;SDS011;41637;52.364;9.910;2023-03-29T14:21:59;5.70;;;4.10;;
55732;SDS011;41637;52.364;9.910;2023-03-29T14:24:33;5.80;;;4.60;;
55732;SDS011;41637;52.364;9.910;2023-03-29T14:27:03;6.60;;;4.20;;
55732;SDS011;41637;52.364;9.910;2023-03-29T14:29:31;6.90;;;4.00;;
55732;SDS011;41637;52.364;9.910;2023-03-29T14:32:09;5.90;;;4.20;;
55732;SDS011;41637;52.364;9.910;2023-03-29T14:34:38;4.90;;;3.40;;
55732;SDS011;41637;52.364;9.910;2023-03-29T14:37:05;3.60;;;2.80;;
55732;SDS011;41637;52.364;9.910;2023-03-29T14:39:34;4.30;;;3.00;;
55732;SDS011;41637;52.364;9.910;2023-03-29T14:42:01;5.60;;;3.40;;
55732;SDS011;41637;52.364;9.910;2023-03-29T14:44:29;4.40;;;3.20;;
55732;SDS011;41637;52.364;9.910;2023-03-29T14:46:58;5.10;;;3.60;;
55732;SDS011;41637;52.364;9.910;2023-03-29T14:49:26;5.00;;;2.90;;
55732;SDS011;41637;52.364;9.910;2023-03-29T14:51:54;4.40;;;3.20;;
55732;SDS011;41637;52.364;9.910;2023-03-29T14:54:25;4.20;;;2.90;;
55732;SDS011;41637;52.364;9.910;2023-03-29T14:56:54;4.00;;;2.90;;
55732;SDS011;41637;52.364;9.910;2023-03-29T14:59:28;3.80;;;2.90;;
55732;SDS011;41637;52.364;9.910;2023-03-29T15:02:02;4.00;;;2.30;;
55732;SDS011;41637;52.364;9.910;2023-03-29T15:04:33;4.50;;;2.80;;
55732;SDS011;41637;52.364;9.910;2023-03-29T15:07:01;4.10;;;2.80;;
55732;SDS011;41637;52.364;9.910;2023-03-29T15:09:30;3.40;;;2.60;;
55732;SDS011;41637;52.364;9.910;2023-03-29T15:12:00;3.10;;;2.50;;
55732;SDS011;41637;52.364;9.910;2023-03-29T15:14:29;3.60;;;2.70;;
55732;SDS011;41637;52.364;9.910;2023-03-29T15:17:27;3.80;;;2.90;;
55732;SDS011;41637;52.364;9.910;2023-03-29T15:20:18;4.40;;;3.50;;
55732;SDS011;41637;52.364;9.910;2023-03-29T15:22:59;4.10;;;3.50;;
55732;SDS011;41637;52.364;9.910;2023-03-29T15:25:33;4.30;;;3.50;;
55732;SDS011;41637;52.364;9.910;2023-03-29T15:28:04;4.20;;;3.40;;
55732;SDS011;41637;52.364;9.910;2023-03-29T15:30:35;4.70;;;3.90;;
55732;SDS011;41637;52.364;9.910;2023-03-29T15:33:22;5.50;;;3.90;;
55732;SDS011;41637;52.364;9.910;2023-03-29T15:35:52;5.80;;;4.00;;
55732;SDS011;41637;52.364;9.910;2023-03-29T15:38:19;4.90;;;4.10;;
55732;SDS011;41637;52.364;9.910;2023-03-29T15:40:58;6.00;;;4.50;;
55732;SDS011;41637;52.364;9.910;2023-03-29T15:43:26;7.20;;;5.00;;
55732;SDS011;41637;52.364;9.910;2023-03-29T15:45:53;6.20;;;5.20;;
55732;SDS011;41637;52.364;9.910;2023-03-29T15:48:22;6.80;;;5.10;;
55732;SDS011;41637;52.364;9.910;2023-03-29T15:50:51;7.20;;;5.20;;
55732;SDS011;41637;52.364;9.910;2023-03-29T15:53:19;6.20;;;4.80;;
55732;SDS011;41637;52.364;9.910;2023-03-29T15:55:47;6.80;;;5.60;;
55732;SDS011;41637;52.364;9.910;2023-03-29T15:58:18;7.50;;;5.20;;
55732;SDS011;41637;52.364;9.910;2023-03-29T16:00:54;6.90;;;5.40;;
55732;SDS011;41637;52.364;9.910;2023-03-29T16:03:24;8.50;;;5.60;;
55732;SDS011;41637;52.364;9.910;2023-03-29T16:05:54;7.60;;;5.90;;
55732;SDS011;41637;52.364;9.910;2023-03-29T16:08:22;7.90;;;5.70;;
55732;SDS011;41637;52.364;9.910;2023-03-29T16:10:50;9.70;;;6.00;;
55732;SDS011;41637;52.364;9.910;2023-03-29T16:13:17;10.70;;;6.10;;
55732;SDS011;41637;52.364;9.910;2023-03-29T16:15:43;7.10;;;5.50;;
55732;SDS011;41637;52.364;9.910;2023-03-29T16:18:11;8.00;;;6.30;;
55732;SDS011;41637;52.364;9.910;2023-03-29T16:20:37;8.70;;;6.40;;
55732;SDS011;41637;52.364;9.910;2023-03-29T16:23:05;8.40;;;6.50;;
55732;SDS011;41637;52.364;9.910;2023-03-29T16:25:35;9.10;;;6.20;;
55732;SDS011;41637;52.364;9.910;2023-03-29T16:28:03;9.70;;;6.40;;
55732;SDS011;41637;52.364;9.910;2023-03-29T16:30:31;8.30;;;6.60;;
55732;SDS011;41637;52.364;9.910;2023-03-29T16:32:58;9.20;;;6.80;;
55732;SDS011;41637;52.364;9.910;2023-03-29T16:35:27;8.40;;;6.70;;
55732;SDS011;41637;52.364;9.910;2023-03-29T16:37:56;9.70;;;7.40;;
55732;SDS011;41637;52.364;9.910;2023-03-29T16:40:23;9.00;;;7.00;;
55732;SDS011;41637;52.364;9.910;2023-03-29T16:42:50;9.90;;;7.20;;
55732;SDS011;41637;52.364;9.910;2023-03-29T16:45:17;9.60;;;7.10;;
55732;SDS011;41637;52.364;9.910;2023-03-29T16:47:44;8.10;;;6.10;;
55732;SDS011;41637;52.364;9.910;2023-03-29T16:50:12;9.30;;;6.60;;
55732;SDS011;41637;52.364;9.910;2023-03-29T16:52:41;8.70;;;7.10;;
55732;SDS011;41637;52.364;9.910;2023-03-29T16:55:08;8.80;;;7.00;;
55732;SDS011;41637;52.364;9.910;2023-03-29T16:57:40;10.30;;;6.90;;
55732;SDS011;41637;52.364;9.910;2023-03-29T17:00:07;9.20;;;7.00;;
55732;SDS011;41637;52.364;9.910;2023-03-29T17:02:41;8.70;;;6.80;;
55732;SDS011;41637;52.364;9.910;2023-03-29T17:05:09;8.70;;;7.00;;
55732;SDS011;41637;52.364;9.910;2023-03-29T17:07:37;11.50;;;7.40;;
55732;SDS011;41637;52.364;9.910;2023-03-29T17:10:07;9.30;;;7.20;;
55732;SDS011;41637;52.364;9.910;2023-03-29T17:12:35;10.20;;;7.00;;
55732;SDS011;41637;52.364;9.910;2023-03-29T17:15:03;9.30;;;6.70;;
55732;SDS011;41637;52.364;9.910;2023-03-29T17:17:30;8.40;;;6.80;;